Time;durP1;ratioP1;P1;durP2;ratioP2;P2;SDS_P1;SDS_P2;PMS_P1;PMS_P2;Temp;Humidity;BMP_temperature;BMP_pressure;BME280_temperature;BME280_humidity;BME280_pressure;Samples;Min_cycle;Max_cycle;Signal;HPM_P1;HPM_P2
2022/09/15 00:02:01;;;;;;;17.87;13.93;;;;;;;16.92;52.05;99560.88;10115227;29;20217;-81
2022/09/15 00:07:23;;;;;;;20.30;14.40;;;;;;;16.05;53.96;99553.25;10126770;29;20813;-81
2022/09/15 00:12:45;;;;;;;24.13;16.70;;;;;;;16.53;52.69;99545.56;10113694;29;20279;-81
2022/09/15 00:18:07;;;;;;;23.70;17.57;;;;;;;16.78;52.13;99548.59;10171234;29;20564;-81
2022/09/15 00:23:29;;;;;;;21.83;16.03;;;;;;;16.29;53.69;99540.47;10152763;29;20220;-82
2022/09/15 00:28:51;;;;;;;24.10;18.13;;;;;;;16.82;51.60;99535.16;10152829;29;20228;-80
2022/09/15 00:34:15;;;;;;;22.37;16.83;;;;;;;16.31;52.27;99540.91;10169176;29;20260;-81
2022/09/15 00:39:37;;;;;;;29.27;16.87;;;;;;;15.99;53.44;99547.13;10111307;29;20264;-81
2022/09/15 00:45:00;;;;;;;23.50;17.20;;;;;;;16.46;52.30;99536.97;10136389;29;20296;-81
2022/09/15 00:50:22;;;;;;;22.90;17.50;;;;;;;16.27;52.78;99540.09;10123405;29;20273;-81
2022/09/15 00:55:47;;;;;;;25.43;16.97;;;;;;;16.45;52.73;99533.31;10113886;29;20193;-81
2022/09/15 01:01:11;;;;;;;26.93;18.33;;;;;;;16.51;52.59;99534.59;10130790;29;20196;-81
2022/09/15 01:06:42;;;;;;;25.97;16.87;;;;;;;15.74;54.66;99544.03;10117274;29;20212;-81
2022/09/15 01:12:05;;;;;;;25.67;17.67;;;;;;;15.92;53.81;99538.50;10137087;29;20224;-81
2022/09/15 01:17:47;;;;;;;25.50;18.10;;;;;;;16.52;52.19;99535.41;10139818;29;20269;-81
2022/09/15 01:23:24;;;;;;;24.57;17.37;;;;;;;16.15;52.59;99527.75;10121149;29;20220;-81
2022/09/15 01:29:29;;;;;;;29.17;17.83;;;;;;;15.57;55.19;99524.75;10113023;29;20212;-81
2022/09/15 01:35:30;;;;;;;23.60;18.73;;;;;;;15.69;54.50;99537.88;10127988;29;20260;-81
2022/09/15 01:41:15;;;;;;;26.40;18.43;;;;;;;15.66;54.63;99528.09;10111705;29;20205;-82
2022/09/15 01:46:45;;;;;;;25.17;17.07;;;;;;;15.64;54.52;99524.00;10139157;29;20205;-81
2022/09/15 01:52:07;;;;;;;24.00;17.50;;;;;;;15.93;53.58;99525.94;10140850;29;20224;-81
2022/09/15 01:57:32;;;;;;;23.73;16.83;;;;;;;16.40;52.19;99524.34;10126779;29;20253;-81
2022/09/15 02:03:03;;;;;;;27.50;16.77;;;;;;;16.55;51.83;99529.72;10086883;29;20190;-81
2022/09/15 02:08:32;;;;;;;25.90;17.40;;;;;;;15.89;53.05;99536.44;10122275;29;20221;-81
2022/09/15 02:14:16;;;;;;;22.23;16.73;;;;;;;16.46;51.80;99525.59;10103453;29;20225;-80
2022/09/15 02:19:40;;;;;;;23.47;16.63;;;;;;;16.50;51.61;99534.97;10121421;29;20204;-80
2022/09/15 02:25:12;;;;;;;25.57;16.30;;;;;;;16.24;52.66;99535.19;10137837;29;20254;-80
2022/09/15 02:30:39;;;;;;;25.23;16.33;;;;;;;15.98;52.92;99536.13;10137259;29;20214;-80
2022/09/15 02:36:02;;;;;;;22.67;17.13;;;;;;;15.37;55.15;99543.97;10135492;29;20216;-80
2022/09/15 02:41:24;;;;;;;25.73;17.43;;;;;;;16.07;53.22;99548.81;10139270;29;20192;-80
2022/09/15 02:46:46;;;;;;;26.37;17.90;;;;;;;16.14;52.80;99542.38;10143246;29;20546;-80
2022/09/15 02:52:08;;;;;;;27.27;17.47;;;;;;;16.14;52.78;99540.34;10148233;29;20251;-80
2022/09/15 02:57:30;;;;;;;24.10;16.80;;;;;;;16.62;51.16;99545.22;10170642;29;20200;-80
2022/09/15 03:02:53;;;;;;;25.77;17.40;;;;;;;16.43;51.01;99547.09;10159297;29;20197;-80
2022/09/15 03:08:15;;;;;;;23.20;17.23;;;;;;;16.50;51.47;99537.81;10118473;29;20269;-80
2022/09/15 03:13:37;;;;;;;27.20;17.27;;;;;;;16.19;52.46;99551.34;10117387;29;20261;-80
2022/09/15 03:19:00;;;;;;;25.30;16.53;;;;;;;16.47;51.58;99561.34;10112509;29;20213;-80
2022/09/15 03:24:22;;;;;;;27.30;17.13;;;;;;;16.47;51.91;99561.34;10144662;29;20257;-80
2022/09/15 03:29:44;;;;;;;23.43;17.03;;;;;;;16.33;52.00;99556.38;10164982;29;20201;-80
2022/09/15 03:35:06;;;;;;;24.50;17.13;;;;;;;16.35;52.55;99558.81;10160258;29;20208;-80
2022/09/15 03:40:29;;;;;;;25.10;17.30;;;;;;;16.19;52.32;99562.72;10176120;29;20244;-80
2022/09/15 03:45:51;;;;;;;28.87;16.33;;;;;;;16.56;51.80;99553.28;10169300;29;20251;-80
2022/09/15 03:51:13;;;;;;;26.33;17.73;;;;;;;16.48;51.78;99545.94;10153218;29;20515;-80
2022/09/15 03:56:35;;;;;;;25.00;17.30;;;;;;;16.59;51.69;99549.66;10150810;29;20255;-80
2022/09/15 04:01:58;;;;;;;22.13;15.57;;;;;;;16.37;52.30;99548.69;10127731;29;20205;-80
2022/09/15 04:07:20;;;;;;;25.20;17.03;;;;;;;15.84;54.00;99553.88;10151040;29;20261;-80
2022/09/15 04:12:43;;;;;;;21.70;15.87;;;;;;;15.91;53.88;99544.56;10161228;29;20212;-80
2022/09/15 04:18:05;;;;;;;28.27;17.50;;;;;;;16.38;52.59;99550.34;10177214;29;20225;-80
2022/09/15 04:23:27;;;;;;;28.70;18.10;;;;;;;16.20;53.91;99552.97;10162117;29;20233;-80
2022/09/15 04:28:49;;;;;;;23.53;16.27;;;;;;;16.61;52.11;99544.41;10165405;29;20221;-79
2022/09/15 04:34:12;;;;;;;28.67;17.80;;;;;;;16.30;53.17;99553.50;10162151;29;20244;-80
2022/09/15 04:39:34;;;;;;;27.77;18.50;;;;;;;16.18;54.00;99555.41;10165506;29;20602;-80
2022/09/15 04:44:56;;;;;;;26.83;19.27;;;;;;;16.22;53.70;99555.44;10141366;29;20223;-79
2022/09/15 04:50:18;;;;;;;24.57;17.47;;;;;;;16.48;53.41;99557.31;10146748;29;20673;-79
2022/09/15 04:55:41;;;;;;;23.73;15.87;;;;;;;16.86;51.48;99551.06;10174531;29;20252;-79
2022/09/15 05:01:12;;;;;;;32.23;19.33;;;;;;;16.57;52.10;99550.06;10152311;29;20233;-79
2022/09/15 05:06:34;;;;;;;27.15;18.88;;;;;;;16.87;51.40;99557.56;10155691;29;20545;-79
2022/09/15 05:11:57;;;;;;;22.53;16.90;;;;;;;16.97;51.00;99567.41;10136597;29;20271;-79
2022/09/15 05:17:19;;;;;;;27.97;18.57;;;;;;;16.98;51.31;99569.88;10158076;29;20220;-79
2022/09/15 05:22:41;;;;;;;24.53;16.37;;;;;;;16.74;51.79;99577.00;10145512;29;20271;-82
2022/09/15 05:28:04;;;;;;;27.63;17.45;;;;;;;17.10;51.22;99582.94;10159739;29;20264;-81
2022/09/15 05:33:26;;;;;;;24.50;16.13;;;;;;;17.02;51.06;99578.44;10131951;29;21196;-81
2022/09/15 05:38:48;;;;;;;23.13;15.90;;;;;;;16.90;52.09;99580.38;10108766;29;20217;-80
2022/09/15 05:44:10;;;;;;;30.07;16.63;;;;;;;16.77;51.83;99575.41;10127275;29;20228;-81
2022/09/15 05:49:32;;;;;;;27.40;16.88;;;;;;;16.47;53.69;99572.75;10125553;29;20193;-81
2022/09/15 05:54:54;;;;;;;18.80;14.23;;;;;;;16.73;52.21;99581.06;10156299;29;20232;-81
2022/09/15 06:00:17;;;;;;;22.17;15.80;;;;;;;17.23;51.49;99570.81;10116057;29;20273;-80
2022/09/15 06:05:40;;;;;;;22.97;16.33;;;;;;;17.11;51.44;99576.03;10128552;29;20220;-81
2022/09/15 06:11:03;;;;;;;26.47;17.77;;;;;;;17.56;50.98;99589.69;10165692;29;20249;-81
2022/09/15 06:16:25;;;;;;;26.37;16.27;;;;;;;17.33;51.20;99594.84;10157164;29;20225;-82
2022/09/15 06:21:48;;;;;;;25.25;17.05;;;;;;;17.27;51.20;99597.28;10124460;29;20198;-81
2022/09/15 06:27:10;;;;;;;18.07;12.60;;;;;;;16.56;52.88;99604.50;10137110;29;20601;-81
2022/09/15 06:32:32;;;;;;;26.27;16.60;;;;;;;16.86;52.94;99608.00;10138634;29;20228;-81
2022/09/15 06:37:54;;;;;;;25.90;17.03;;;;;;;17.32;51.77;99613.16;10136260;29;20587;-81
2022/09/15 06:43:15;;;;;;;22.57;16.80;;;;;;;17.44;51.51;99615.69;10133507;29;20476;-81
2022/09/15 06:48:38;;;;;;;27.43;16.80;;;;;;;17.24;52.50;99628.59;10143196;29;20206;-81
2022/09/15 06:54:02;;;;;;;25.70;16.00;;;;;;;17.46;51.94;99621.78;10127270;29;20309;-80
2022/09/15 06:59:23;;;;;;;21.73;14.53;;;;;;;17.40;51.31;99631.94;10118244;29;20619;-81
2022/09/15 07:04:45;;;;;;;24.73;16.23;;;;;;;17.38;51.35;99640.06;10136484;29;20300;-81
2022/09/15 07:10:08;;;;;;;21.67;14.13;;;;;;;17.48;51.38;99644.16;10121663;29;20201;-81
2022/09/15 07:15:30;;;;;;;18.53;13.97;;;;;;;17.54;51.29;99653.97;10121544;29;20351;-81
2022/09/15 07:20:57;;;;;;;20.50;16.13;;;;;;;17.21;52.01;99658.66;10130196;29;20268;-81
2022/09/15 07:26:24;;;;;;;21.70;15.43;;;;;;;18.07;50.05;99657.06;10161165;29;20261;-81
2022/09/15 07:31:48;;;;;;;19.95;14.63;;;;;;;17.62;51.42;99662.19;10131248;29;20241;-80
2022/09/15 07:37:10;;;;;;;21.43;14.30;;;;;;;17.76;50.97;99667.13;10128569;29;20246;-80
2022/09/15 07:42:32;;;;;;;17.70;13.17;;;;;;;17.51;50.77;99674.72;10132808;29;20594;-82
2022/09/15 07:47:54;;;;;;;16.50;12.33;;;;;;;17.75;50.73;99664.69;10131307;29;20279;-80
2022/09/15 07:53:16;;;;;;;15.45;10.48;;;;;;;18.43;48.96;99660.81;10136944;29;20252;-83
2022/09/15 07:58:39;;;;;;;15.23;10.07;;;;;;;18.48;48.34;99673.88;10145519;29;20197;-81
2022/09/15 08:04:01;;;;;;;17.80;10.50;;;;;;;18.32;50.35;99675.09;10139009;29;20236;-82
2022/09/15 08:09:23;;;;;;;17.77;9.40;;;;;;;18.43;48.03;99671.44;10128357;29;20260;-80
2022/09/15 08:14:45;;;;;;;13.37;8.03;;;;;;;18.29;47.97;99672.22;10122456;29;20250;-80
2022/09/15 08:20:07;;;;;;;10.23;6.78;;;;;;;18.03;48.94;99687.59;10137305;29;20594;-81
2022/09/15 08:25:29;;;;;;;11.20;6.20;;;;;;;17.63;49.29;99694.34;10118333;29;20252;-80
2022/09/15 08:31:03;;;;;;;10.10;4.27;;;;;;;18.36;45.34;99702.78;10136245;29;20678;-80
2022/09/15 08:36:26;;;;;;;8.70;4.15;;;;;;;18.07;48.73;99711.25;10149765;29;20558;-81
2022/09/15 08:41:51;;;;;;;8.88;3.40;;;;;;;18.94;45.89;99703.28;10166687;29;20594;-81
2022/09/15 08:47:21;;;;;;;7.82;2.38;;;;;;;18.68;44.54;99715.91;10174533;29;20267;-81
2022/09/15 08:52:52;;;;;;;5.80;2.78;;;;;;;18.61;45.76;99718.75;10131624;29;20297;-81
2022/09/15 08:58:21;;;;;;;6.87;2.80;;;;;;;19.11;43.23;99720.84;10111208;29;20285;-81
2022/09/15 09:04:02;;;;;;;5.50;2.63;;;;;;;18.74;44.36;99716.31;10142895;29;20197;-81
2022/09/15 09:09:48;;;;;;;3.30;1.57;;;;;;;16.53;44.67;99733.31;10141543;29;20646;-81
2022/09/15 09:15:20;;;;;;;4.60;1.13;;;;;;;18.50;41.72;99728.50;10112102;29;20558;-80
2022/09/15 09:20:51;;;;;;;3.15;0.90;;;;;;;18.29;40.37;99735.78;10151691;29;20546;-81
2022/09/15 09:26:14;;;;;;;3.78;0.95;;;;;;;18.94;40.44;99731.03;10177917;29;20629;-81
2022/09/15 09:31:36;;;;;;;4.03;1.20;;;;;;;17.62;42.30;99733.44;10166393;29;20287;-80
2022/09/15 09:37:01;;;;;;;3.88;0.93;;;;;;;17.81;41.93;99731.50;10150691;29;20494;-81
2022/09/15 09:42:28;;;;;;;1.40;0.70;;;;;;;17.80;39.82;99741.28;10161773;29;20200;-80
2022/09/15 09:47:50;;;;;;;3.63;0.70;;;;;;;17.82;41.96;99736.00;10164383;29;20228;-81
2022/09/15 09:53:27;;;;;;;6.63;1.02;;;;;;;17.69;39.33;99740.41;10157849;29;20291;-80
2022/09/15 09:58:49;;;;;;;5.13;0.77;;;;;;;18.51;38.45;99742.38;10120953;29;20212;-81
2022/09/15 10:04:17;;;;;;;7.07;1.37;;;;;;;17.73;38.62;99733.47;10130999;29;20280;-80
2022/09/15 10:09:49;;;;;;;5.40;1.27;;;;;;;17.99;41.26;99735.22;10154859;29;20318;-81
2022/09/15 10:15:29;;;;;;;6.87;0.97;;;;;;;18.21;37.80;99731.28;10166755;29;20225;-80
2022/09/15 10:20:51;;;;;;;4.43;0.53;;;;;;;17.71;38.57;99723.69;10138793;29;20224;-80
2022/09/15 10:26:31;;;;;;;6.70;1.15;;;;;;;19.06;39.24;99726.94;10146381;29;20225;-81
2022/09/15 10:32:23;;;;;;;1.90;0.77;;;;;;;17.53;38.77;99730.09;10126952;29;20248;-82
2022/09/15 10:38:07;;;;;;;7.47;1.00;;;;;;;18.69;38.43;99731.81;10134344;29;20229;-80
2022/09/15 10:43:57;;;;;;;4.68;0.60;;;;;;;18.02;39.21;99731.59;10131805;29;20209;-81
2022/09/15 10:49:35;;;;;;;8.57;1.17;;;;;;;18.35;38.48;99743.97;10138196;29;20201;-80
2022/09/15 10:55:03;;;;;;;4.30;1.03;;;;;;;17.46;41.16;99752.81;10140270;29;20252;-80
2022/09/15 11:00:33;;;;;;;9.27;1.20;;;;;;;17.57;44.21;99770.84;10150876;29;20246;-80
2022/09/15 11:06:14;;;;;;;5.23;1.13;;;;;;;17.32;46.38;99775.50;10143372;29;20188;-81
2022/09/15 11:11:39;;;;;;;4.40;0.98;;;;;;;17.17;47.98;99779.50;10156364;29;20201;-81
2022/09/15 11:17:26;;;;;;;7.17;1.63;;;;;;;17.56;46.14;99774.91;10141885;29;20650;-82
2022/09/15 11:23:08;;;;;;;4.47;1.13;;;;;;;18.07;45.55;99762.59;10114053;29;20332;-80
2022/09/15 11:28:41;;;;;;;4.60;1.27;;;;;;;18.38;45.19;99763.94;10131208;29;20200;-81
2022/09/15 11:34:10;;;;;;;3.28;0.93;;;;;;;18.78;43.14;99762.81;10109835;29;20256;-80
2022/09/15 11:39:36;;;;;;;5.28;0.90;;;;;;;18.66;44.90;99761.16;10107856;29;20281;-81
2022/09/15 11:44:58;;;;;;;1.70;0.43;;;;;;;19.22;40.68;99761.66;10122092;29;20197;-81
2022/09/15 11:50:29;;;;;;;1.75;0.40;;;;;;;18.81;40.30;99770.56;10115059;29;20301;-80
2022/09/15 11:56:28;;;;;;;2.97;0.40;;;;;;;18.59;42.37;99769.72;10143918;29;20260;-81
2022/09/15 12:01:58;;;;;;;1.65;0.40;;;;;;;18.61;40.41;99755.03;10152246;29;20240;-81
2022/09/15 12:07:22;;;;;;;1.57;0.50;;;;;;;18.91;40.59;99752.63;10170244;29;20236;-80
2022/09/15 12:12:45;;;;;;;5.07;1.30;;;;;;;18.95;40.32;99756.34;10167152;29;20279;-80
2022/09/15 12:18:16;;;;;;;5.47;0.60;;;;;;;18.98;40.75;99744.09;10165703;29;20224;-80
2022/09/15 12:23:48;;;;;;;5.73;1.17;;;;;;;18.81;40.14;99739.16;10176763;29;20287;-80
2022/09/15 12:29:25;;;;;;;7.93;1.33;;;;;;;18.90;39.74;99745.28;10165685;29;20546;-80
2022/09/15 12:35:02;;;;;;;3.92;0.90;;;;;;;19.64;38.81;99741.63;10160446;29;20224;-80
2022/09/15 12:40:36;;;;;;;3.30;0.90;;;;;;;19.55;39.77;99748.94;10162528;29;20669;-81
2022/09/15 12:45:59;;;;;;;6.40;0.90;;;;;;;18.84;38.58;99757.53;10162451;29;20610;-80
2022/09/15 12:51:25;;;;;;;4.28;0.70;;;;;;;18.88;40.06;99756.28;10155034;29;20201;-80
2022/09/15 12:56:51;;;;;;;1.63;0.60;;;;;;;18.93;39.43;99770.19;10155713;29;20247;-80
2022/09/15 13:02:45;;;;;;;4.55;1.00;;;;;;;18.85;39.94;99753.44;10154902;29;20197;-80
2022/09/15 13:08:10;;;;;;;4.82;0.77;;;;;;;18.96;39.70;99766.53;10169720;29;20192;-80
2022/09/15 13:13:38;;;;;;;3.78;0.60;;;;;;;19.61;38.34;99747.34;10161273;29;20243;-81
2022/09/15 13:19:13;;;;;;;3.17;0.77;;;;;;;19.10;38.75;99751.44;10164950;29;20222;-84
2022/09/15 13:24:49;;;;;;;4.70;0.87;;;;;;;18.30;40.47;99754.56;10166153;29;20224;-81
2022/09/15 13:30:36;;;;;;;3.47;0.67;;;;;;;19.65;38.88;99754.66;10145022;29;20206;-81
2022/09/15 13:36:18;;;;;;;4.05;0.85;;;;;;;19.60;38.30;99737.94;10159394;29;20276;-81
2022/09/15 13:42:04;;;;;;;5.10;0.80;;;;;;;18.72;38.19;99740.78;10168661;29;20195;-80
2022/09/15 13:47:41;;;;;;;4.30;0.77;;;;;;;19.09;38.10;99729.81;10161014;29;20243;-81
2022/09/15 13:53:25;;;;;;;2.80;0.85;;;;;;;19.58;37.38;99720.38;10163592;29;20204;-81
2022/09/15 13:58:48;;;;;;;5.30;1.15;;;;;;;18.71;37.89;99717.13;10173775;29;20197;-82
2022/09/15 14:04:19;;;;;;;3.38;0.60;;;;;;;19.88;36.18;99699.88;10163796;29;20213;-82
2022/09/15 14:09:44;;;;;;;4.85;0.80;;;;;;;19.12;36.67;99708.19;10115271;29;20192;-81
2022/09/15 14:15:06;;;;;;;10.95;1.05;;;;;;;19.87;36.06;99697.41;10159484;29;20228;-79
2022/09/15 14:20:32;;;;;;;3.67;0.60;;;;;;;19.32;37.22;99712.25;10148293;29;20614;-80
2022/09/15 14:25:58;;;;;;;2.60;0.63;;;;;;;19.44;37.16;99703.22;10145806;29;20286;-80
2022/09/15 14:31:32;;;;;;;2.60;0.50;;;;;;;19.03;37.25;99722.88;10118179;29;20226;-80
2022/09/15 14:37:00;;;;;;;5.82;0.98;;;;;;;19.59;37.87;99712.63;10119687;29;20637;-79
2022/09/15 14:42:31;;;;;;;2.92;0.65;;;;;;;18.96;37.10;99715.13;10141969;29;20217;-80
2022/09/15 14:47:58;;;;;;;3.33;0.70;;;;;;;19.81;35.56;99699.06;10117214;29;20567;-79
2022/09/15 14:53:21;;;;;;;3.33;0.60;;;;;;;19.85;36.58;99711.31;10118639;29;20244;-79
2022/09/15 14:58:48;;;;;;;2.53;0.57;;;;;;;19.34;36.32;99715.50;10134283;29;20464;-80
2022/09/15 15:04:19;;;;;;;6.45;1.08;;;;;;;19.49;35.61;99717.13;10134787;29;20193;-79
2022/09/15 15:09:57;;;;;;;2.65;0.35;;;;;;;18.86;36.91;99724.50;10125725;29;20201;-79
2022/09/15 15:15:21;;;;;;;4.10;0.67;;;;;;;19.71;36.26;99715.84;10126900;29;20236;-80
2022/09/15 15:20:48;;;;;;;6.63;1.20;;;;;;;19.76;36.79;99713.81;10134728;29;20202;-82
2022/09/15 15:26:31;;;;;;;3.45;0.75;;;;;;;19.14;38.53;99722.84;10126761;29;20293;-80
2022/09/15 15:32:03;;;;;;;4.70;1.00;;;;;;;19.47;37.90;99708.13;10134495;29;20332;-80
2022/09/15 15:37:30;;;;;;;2.00;0.52;;;;;;;19.01;38.22;99709.00;10130845;29;20245;-81
2022/09/15 15:43:01;;;;;;;3.30;0.77;;;;;;;19.28;37.55;99706.53;10128594;29;20209;-82
2022/09/15 15:48:25;;;;;;;2.70;0.77;;;;;;;19.54;37.31;99710.13;10113823;29;20225;-82
2022/09/15 15:53:47;;;;;;;5.20;1.67;;;;;;;18.98;38.92;99726.97;10109650;29;20240;-82
2022/09/15 15:59:11;;;;;;;2.65;1.00;;;;;;;18.86;39.19;99735.91;10124772;29;20209;-83
2022/09/15 16:04:33;;;;;;;9.67;1.57;;;;;;;18.08;44.50;99746.28;10121804;29;20249;-83
2022/09/15 16:09:55;;;;;;;6.90;0.70;;;;;;;17.97;44.39;99746.22;10123886;29;20249;-83
2022/09/15 16:15:19;;;;;;;4.23;0.80;;;;;;;18.56;46.99;99736.28;10136336;29;20244;-85
2022/09/15 16:20:42;;;;;;;4.57;1.00;;;;;;;18.38;43.76;99746.00;10138402;29;20753;-82
2022/09/15 16:26:06;;;;;;;3.00;1.10;;;;;;;18.19;44.28;99752.84;10151181;29;20284;-83
2022/09/15 16:31:28;;;;;;;4.67;1.10;;;;;;;18.03;46.95;99750.34;10129028;29;20281;-84
2022/09/15 16:36:50;;;;;;;5.03;1.20;;;;;;;18.73;44.41;99737.53;10158760;29;20248;-82
2022/09/15 16:42:12;;;;;;;4.23;0.60;;;;;;;18.51;45.42;99736.66;10149377;29;20253;-85
2022/09/15 16:47:34;;;;;;;5.35;0.63;;;;;;;18.15;46.45;99744.28;10155642;29;20197;-84
2022/09/15 16:52:57;;;;;;;3.72;1.10;;;;;;;18.13;46.48;99755.25;10160991;29;20542;-81
2022/09/15 16:58:19;;;;;;;3.28;1.30;;;;;;;18.22;45.25;99749.19;10173127;29;20260;-81
2022/09/15 17:03:42;;;;;;;6.00;1.40;;;;;;;17.98;45.92;99759.25;10147095;29;20197;-80
2022/09/15 17:09:04;;;;;;;7.63;1.20;;;;;;;17.87;45.75;99758.41;10158843;29;20586;-83
2022/09/15 17:14:26;;;;;;;4.17;1.17;;;;;;;17.80;45.47;99764.06;10136024;29;20257;-80
2022/09/15 17:19:49;;;;;;;4.43;0.80;;;;;;;17.89;45.20;99759.63;10170783;29;20212;-80
2022/09/15 17:25:47;;;;;;;5.80;1.30;;;;;;;17.74;44.11;99765.66;10164165;29;20229;-80
2022/09/15 17:31:19;;;;;;;7.32;2.20;;;;;;;18.16;42.73;99759.34;10157836;29;20264;-81
2022/09/15 17:36:41;;;;;;;4.20;0.90;;;;;;;17.78;43.58;99764.47;10135719;29;20244;-80
2022/09/15 17:42:03;;;;;;;4.57;1.37;;;;;;;17.93;42.98;99759.66;10156627;29;20204;-80
2022/09/15 17:47:25;;;;;;;3.00;0.57;;;;;;;18.07;41.77;99759.72;10146519;29;20205;-81
2022/09/15 17:52:47;;;;;;;4.47;0.70;;;;;;;17.43;43.01;99756.50;10158893;29;20283;-80
2022/09/15 17:58:09;;;;;;;5.53;1.13;;;;;;;17.69;42.82;99760.34;10128730;29;20255;-80
2022/09/15 18:03:36;;;;;;;4.07;0.63;;;;;;;17.47;43.26;99767.91;10152212;29;20209;-80
2022/09/15 18:08:58;;;;;;;2.63;0.77;;;;;;;17.50;43.26;99773.63;10130561;29;20704;-80
2022/09/15 18:14:20;;;;;;;5.37;1.13;;;;;;;17.81;43.27;99774.25;10144711;29;20248;-80
2022/09/15 18:19:42;;;;;;;4.23;0.73;;;;;;;17.78;43.15;99777.91;10140443;29;20605;-80
2022/09/15 18:25:04;;;;;;;6.85;1.30;;;;;;;17.53;43.08;99778.53;10124382;29;20809;-80
2022/09/15 18:30:29;;;;;;;3.57;0.50;;;;;;;17.69;42.90;99791.69;10116277;29;20237;-81
2022/09/15 18:35:54;;;;;;;2.70;0.80;;;;;;;17.40;42.38;99800.00;10097815;29;20253;-80
2022/09/15 18:41:16;;;;;;;5.50;1.07;;;;;;;17.27;42.24;99799.50;10113754;29;20237;-80
2022/09/15 18:46:38;;;;;;;4.37;0.97;;;;;;;17.88;41.26;99805.66;10122102;29;20519;-80
2022/09/15 18:52:01;;;;;;;3.97;0.67;;;;;;;17.48;42.13;99798.03;10127154;29;21005;-79
2022/09/15 18:57:23;;;;;;;2.07;0.40;;;;;;;17.48;40.50;99810.25;10114529;29;20249;-81
2022/09/15 19:02:46;;;;;;;2.40;0.57;;;;;;;17.19;41.53;99822.59;10111942;29;20618;-81
2022/09/15 19:08:09;;;;;;;1.40;0.53;;;;;;;16.37;43.62;99829.44;10129775;29;20225;-80
2022/09/15 19:13:33;;;;;;;2.47;0.60;;;;;;;17.00;41.86;99822.84;10121516;29;20256;-80
2022/09/15 19:18:55;;;;;;;3.93;0.80;;;;;;;17.44;41.11;99829.34;10127737;29;20362;-80
2022/09/15 19:24:17;;;;;;;3.03;0.90;;;;;;;16.95;43.05;99823.19;10122979;29;20241;-81
2022/09/15 19:29:40;;;;;;;1.23;0.50;;;;;;;16.85;42.43;99831.22;10110433;29;20483;-79
2022/09/15 19:35:02;;;;;;;4.63;0.47;;;;;;;17.20;42.88;99829.94;10128383;29;20317;-82
2022/09/15 19:40:24;;;;;;;3.73;0.50;;;;;;;16.97;43.12;99835.84;10125058;29;20253;-81
2022/09/15 19:45:46;;;;;;;3.10;0.50;;;;;;;16.87;43.77;99833.66;10109147;29;20336;-80
2022/09/15 19:51:11;;;;;;;2.38;0.52;;;;;;;17.04;42.66;99840.78;10127295;29;20236;-80
2022/09/15 19:56:34;;;;;;;2.93;0.40;;;;;;;16.44;43.43;99840.91;10109835;29;20248;-81
2022/09/15 20:01:56;;;;;;;1.85;0.40;;;;;;;16.36;42.94;99844.88;10102310;29;20233;-82
2022/09/15 20:07:18;;;;;;;4.57;0.60;;;;;;;16.41;44.63;99835.97;10128771;29;20284;-81
2022/09/15 20:12:40;;;;;;;3.43;0.40;;;;;;;16.36;43.52;99850.56;10116068;29;20607;-81
2022/09/15 20:18:02;;;;;;;3.47;0.55;;;;;;;16.74;43.58;99855.91;10122285;29;20650;-81
2022/09/15 20:23:25;;;;;;;1.70;0.63;;;;;;;17.06;41.80;99866.81;10122253;29;20269;-81
2022/09/15 20:28:47;;;;;;;3.30;0.50;;;;;;;16.31;44.29;99865.09;10130797;29;20245;-81
2022/09/15 20:34:09;;;;;;;1.83;0.40;;;;;;;16.21;43.57;99867.41;10121232;29;20839;-81
2022/09/15 20:39:31;;;;;;;4.30;0.40;;;;;;;15.48;44.86;99879.25;10108742;29;20233;-80
2022/09/15 20:44:53;;;;;;;4.67;0.40;;;;;;;16.50;42.85;99879.19;10117835;29;20232;-81
2022/09/15 20:50:16;;;;;;;1.77;0.23;;;;;;;16.95;43.55;99885.81;10117225;29;20233;-82
2022/09/15 20:55:38;;;;;;;2.73;0.37;;;;;;;16.59;42.51;99882.53;10130118;29;20248;-82
2022/09/15 21:01:12;;;;;;;3.03;0.30;;;;;;;16.72;42.20;99891.63;10130221;29;20236;-81
2022/09/15 21:06:34;;;;;;;1.23;0.30;;;;;;;16.98;41.92;99890.75;10131388;29;20242;-81
2022/09/15 21:11:56;;;;;;;3.33;0.40;;;;;;;16.49;43.02;99886.06;10134672;29;20267;-81
2022/09/15 21:17:18;;;;;;;4.37;0.40;;;;;;;16.93;42.47;99881.34;10130918;29;20669;-82
2022/09/15 21:22:40;;;;;;;4.20;0.40;;;;;;;17.43;41.47;99881.84;10130160;29;20316;-82
2022/09/15 21:28:02;;;;;;;3.37;0.50;;;;;;;16.91;42.72;99883.75;10115718;29;20285;-81
2022/09/15 21:33:25;;;;;;;2.10;0.50;;;;;;;16.85;42.83;99890.97;10142171;29;20227;-81
2022/09/15 21:38:48;;;;;;;4.47;0.40;;;;;;;16.72;42.88;99889.63;10147952;29;20232;-84
2022/09/15 21:44:10;;;;;;;3.50;0.63;;;;;;;16.92;43.36;99902.47;10156027;29;20269;-84
2022/09/15 21:49:32;;;;;;;2.67;0.55;;;;;;;16.72;43.84;99898.16;10138199;29;20197;-80
2022/09/15 21:54:55;;;;;;;3.00;0.50;;;;;;;16.91;43.05;99900.81;10139232;29;20288;-81
2022/09/15 22:00:16;;;;;;;1.27;0.50;;;;;;;16.37;43.33;99892.00;10114353;29;20201;-80
2022/09/15 22:05:46;;;;;;;1.63;0.30;;;;;;;16.03;43.56;99908.13;10161178;29;20534;-81
2022/09/15 22:11:08;;;;;;;2.03;0.40;;;;;;;15.35;45.12;99915.53;10150838;29;20216;-81
2022/09/15 22:16:30;;;;;;;4.63;0.60;;;;;;;16.25;44.45;99900.78;10157411;29;20304;-81
2022/09/15 22:21:52;;;;;;;2.20;0.40;;;;;;;17.00;42.50;99896.88;10146878;29;20248;-81
2022/09/15 22:27:14;;;;;;;3.00;0.50;;;;;;;16.49;43.24;99900.31;10131413;29;20201;-84
2022/09/15 22:32:36;;;;;;;2.75;0.47;;;;;;;17.04;42.52;99903.44;10136217;29;20205;-80
2022/09/15 22:37:58;;;;;;;4.17;0.70;;;;;;;17.33;42.54;99910.22;10135960;29;20276;-81
2022/09/15 22:43:21;;;;;;;4.43;0.50;;;;;;;16.93;43.43;99904.09;10120698;29;20213;-81
2022/09/15 22:48:43;;;;;;;3.53;0.50;;;;;;;16.00;45.13;99918.28;10135343;29;20201;-81
2022/09/15 22:54:05;;;;;;;5.37;0.90;;;;;;;16.73;44.35;99910.34;10135637;29;20260;-80
2022/09/15 22:59:27;;;;;;;5.73;1.07;;;;;;;15.98;44.46;99915.00;10137021;29;20253;-80
2022/09/15 23:04:50;;;;;;;2.20;0.70;;;;;;;16.49;43.32;99906.81;10143962;29;20567;-80
2022/09/15 23:10:12;;;;;;;2.77;0.57;;;;;;;16.23;44.00;99920.25;10117172;29;20205;-79
2022/09/15 23:15:34;;;;;;;2.23;0.67;;;;;;;16.79;43.15;99903.94;10127637;29;20296;-79
2022/09/15 23:21:01;;;;;;;3.67;0.53;;;;;;;15.91;43.56;99909.19;10140505;29;20662;-80
2022/09/15 23:26:23;;;;;;;3.33;0.70;;;;;;;16.25;43.47;99906.47;10125104;29;20631;-79
2022/09/15 23:31:45;;;;;;;3.30;0.43;;;;;;;16.36;43.11;99896.06;10140011;29;20229;-81
2022/09/15 23:37:07;;;;;;;2.67;0.43;;;;;;;16.13;43.92;99902.63;10143399;29;20237;-81
2022/09/15 23:42:30;;;;;;;2.07;0.40;;;;;;;16.52;42.55;99893.84;10127560;29;20503;-80
2022/09/15 23:47:56;;;;;;;2.63;0.80;;;;;;;16.08;44.07;99902.94;10128816;29;20197;-82
2022/09/15 23:53:18;;;;;;;4.30;1.00;;;;;;;16.26;43.78;99902.44;10140166;29;20213;-80
2022/09/15 23:58:40;;;;;;;4.50;1.37;;;;;;;16.26;43.79;99900.41;10144355;29;20217;-80
